Time;durP1;ratioP1;P1;durP2;ratioP2;P2;SDS_P1;SDS_P2;PMS_P1;PMS_P2;Temp;Humidity;BMP_temperature;BMP_pressure;BME280_temperature;BME280_humidity;BME280_pressure;Samples;Min_cycle;Max_cycle;Signal;HPM_P1;HPM_P2
2023/01/11 00:00:00;;;;;;;3.92;1.67;;;;;;;4.61;87.39;98473.09;5053089;28;20632;-80
2023/01/11 00:02:26;;;;;;;9.05;1.98;;;;;;;4.71;86.65;98476.84;5034775;28;20055;-80
2023/01/11 00:04:51;;;;;;;2.88;1.30;;;;;;;4.58;87.06;98490.19;5065536;28;20159;-80
2023/01/11 00:07:16;;;;;;;3.28;1.30;;;;;;;4.62;86.64;98464.94;5052249;28;20068;-80
2023/01/11 00:09:42;;;;;;;6.43;1.55;;;;;;;4.67;86.74;98475.66;5049368;28;20029;-80
2023/01/11 00:12:07;;;;;;;3.15;1.40;;;;;;;4.58;87.04;98469.06;5053565;28;20472;-80
2023/01/11 00:14:32;;;;;;;2.45;1.45;;;;;;;4.54;87.36;98460.72;5045796;28;20024;-80
2023/01/11 00:16:58;;;;;;;1.48;1.02;;;;;;;4.60;87.50;98474.91;5058740;28;20032;-80
2023/01/11 00:19:24;;;;;;;5.45;2.80;;;;;;;4.58;87.79;98466.41;5070202;28;20175;-79
2023/01/11 00:21:49;;;;;;;3.55;1.42;;;;;;;4.56;87.90;98465.81;5041916;28;20116;-80
2023/01/11 00:24:15;;;;;;;10.00;1.52;;;;;;;4.71;87.10;98454.88;5033200;28;20032;-80
2023/01/11 00:26:40;;;;;;;2.85;1.48;;;;;;;4.53;88.14;98467.06;5060891;28;20043;-79
2023/01/11 00:29:05;;;;;;;3.38;1.75;;;;;;;4.60;87.59;98459.06;5047480;28;20024;-80
2023/01/11 00:31:31;;;;;;;3.50;1.33;;;;;;;4.80;86.93;98451.72;5030095;28;20059;-80
2023/01/11 00:33:56;;;;;;;2.05;1.45;;;;;;;4.65;87.41;98442.56;5060282;28;20040;-80
2023/01/11 00:36:21;;;;;;;3.83;1.30;;;;;;;4.86;86.75;98440.25;5029739;28;20098;-80
2023/01/11 00:38:50;;;;;;;5.38;1.55;;;;;;;4.61;87.35;98428.94;5045838;28;20032;-80
2023/01/11 00:49:29;;;;;;;2.30;1.17;;;;;;;4.73;86.64;98413.97;5051878;28;20190;-79
2023/01/11 00:51:54;;;;;;;2.13;1.33;;;;;;;4.87;86.42;98427.84;5062482;28;20123;-79
2023/01/11 00:54:20;;;;;;;6.40;1.60;;;;;;;4.83;86.54;98437.22;5057451;28;20040;-80
2023/01/11 00:56:45;;;;;;;4.97;1.60;;;;;;;4.84;87.18;98444.16;5041600;28;20025;-80
2023/01/11 00:59:11;;;;;;;3.13;1.42;;;;;;;4.63;87.16;98421.59;5039179;28;20323;-80
2023/01/11 01:01:37;;;;;;;2.22;0.90;;;;;;;4.78;87.18;98435.28;5059935;28;20038;-79
2023/01/11 01:04:02;;;;;;;5.03;1.33;;;;;;;4.65;86.81;98445.19;5054256;28;20020;-79
2023/01/11 01:06:28;;;;;;;2.92;1.48;;;;;;;4.84;87.33;98429.09;5056909;28;20036;-80
2023/01/11 01:08:54;;;;;;;2.35;1.27;;;;;;;4.74;87.13;98415.59;5045423;28;20032;-80
2023/01/11 01:11:19;;;;;;;2.30;1.13;;;;;;;4.88;86.89;98416.22;5064139;28;20121;-79
2023/01/11 01:16:31;;;;;;;0.88;0.73;;;;;;;4.88;87.26;98416.22;5041535;28;20039;-80
2023/01/11 01:18:59;;;;;;;4.05;1.65;;;;;;;4.79;87.13;98404.34;5054049;28;20040;-80
2023/01/11 01:21:26;;;;;;;4.43;1.40;;;;;;;4.80;87.71;98416.53;5059033;28;20116;-80
2023/01/11 01:23:55;;;;;;;1.42;0.90;;;;;;;4.79;87.03;98396.41;5057077;28;20033;-80
2023/01/11 01:26:21;;;;;;;1.23;1.05;;;;;;;4.74;87.85;98415.59;5020232;28;20039;-80
2023/01/11 01:28:46;;;;;;;2.22;1.52;;;;;;;4.92;87.06;98401.53;5051017;28;20070;-79
2023/01/11 01:31:12;;;;;;;1.73;1.02;;;;;;;4.80;88.07;98408.63;5057032;28;20044;-80
2023/01/11 01:33:37;;;;;;;5.57;1.58;;;;;;;4.73;88.23;98402.59;5042015;28;20032;-79
2023/01/11 01:36:03;;;;;;;6.18;1.00;;;;;;;4.88;87.36;98397.72;5041555;28;20036;-80
2023/01/11 01:38:29;;;;;;;5.50;1.20;;;;;;;4.95;87.41;98412.50;5047785;28;20479;-80
2023/01/11 01:40:55;;;;;;;2.35;0.70;;;;;;;4.90;87.14;98400.94;5034906;28;20114;-79
2023/01/11 01:43:22;;;;;;;2.53;1.42;;;;;;;4.97;87.83;98394.56;5064910;28;20021;-79
2023/01/11 01:45:51;;;;;;;2.95;1.48;;;;;;;4.95;87.31;98385.22;5038363;28;20040;-80
2023/01/11 01:48:20;;;;;;;2.67;1.23;;;;;;;4.98;87.37;98395.38;5024185;28;20056;-80
2023/01/11 01:50:58;;;;;;;3.20;1.27;;;;;;;4.92;87.47;98389.13;5075399;28;20032;-80
2023/01/11 01:53:35;;;;;;;1.08;0.80;;;;;;;4.95;87.56;98401.09;5053126;28;20033;-80
2023/01/11 01:56:05;;;;;;;3.75;1.70;;;;;;;4.98;87.24;98398.81;5074442;28;20049;-80
2023/01/11 01:58:35;;;;;;;3.20;1.33;;;;;;;4.97;88.17;98383.16;5068909;28;20158;-80
2023/01/11 02:01:45;;;;;;;2.92;1.38;;;;;;;5.01;87.57;98392.25;5042505;28;20046;-80
2023/01/11 02:03:48;;;;;;;1.42;1.25;;;;;;;4.89;87.72;98370.28;5048716;28;20032;-80
2023/01/11 02:06:14;;;;;;;1.95;1.05;;;;;;;4.97;87.76;98377.88;5069820;28;20043;-80
2023/01/11 02:08:43;;;;;;;2.45;1.60;;;;;;;4.97;87.65;98381.34;5068372;28;20025;-80
2023/01/11 02:11:33;;;;;;;4.00;2.90;;;;;;;5.04;87.82;98386.53;5060815;28;20039;-80
2023/01/11 02:14:02;;;;;;;4.22;1.45;;;;;;;4.97;88.16;98372.59;5057937;28;20048;-80
2023/01/11 02:16:27;;;;;;;1.27;1.00;;;;;;;4.89;88.92;98359.69;5060448;28;20061;-80
2023/01/11 02:18:54;;;;;;;4.40;1.88;;;;;;;5.04;88.01;98360.09;5063907;28;20431;-80
2023/01/11 02:21:24;;;;;;;3.17;1.80;;;;;;;5.11;87.89;98374.03;5053826;28;20040;-80
2023/01/11 02:24:27;;;;;;;3.05;1.63;;;;;;;5.08;88.70;98377.94;5065715;28;20024;-80
2023/01/11 02:27:01;;;;;;;3.78;1.65;;;;;;;5.13;87.77;98361.41;5067373;28;20403;-80
2023/01/11 02:29:48;;;;;;;6.15;1.52;;;;;;;5.06;88.58;98350.91;5050168;28;20021;-80
2023/01/11 02:32:20;;;;;;;4.22;1.42;;;;;;;5.09;88.52;98355.72;5042505;28;20115;-80
2023/01/11 02:35:23;;;;;;;3.20;1.52;;;;;;;5.07;88.21;98359.63;5048974;28;21512;-80
2023/01/11 02:38:09;;;;;;;3.70;2.15;;;;;;;5.11;88.32;98352.88;5063335;28;20033;-80
2023/01/11 02:40:41;;;;;;;1.43;1.17;;;;;;;5.14;88.36;98337.34;5045305;28;20029;-80
2023/01/11 02:46:13;;;;;;;2.95;1.33;;;;;;;5.17;88.26;98333.47;5047520;28;20407;-80
2023/01/11 02:48:44;;;;;;;3.25;1.70;;;;;;;5.22;88.37;98334.38;5039363;28;20488;-80
2023/01/11 02:51:21;;;;;;;6.47;1.70;;;;;;;5.17;88.29;98328.16;5065645;28;20085;-80
2023/01/11 02:53:57;;;;;;;2.15;1.30;;;;;;;5.19;88.90;98334.03;5065921;28;20024;-80
2023/01/11 02:56:30;;;;;;;2.20;0.90;;;;;;;5.06;88.21;98311.25;5056323;28;20043;-80
2023/01/11 02:58:57;;;;;;;4.85;1.25;;;;;;;5.06;88.82;98315.72;5033179;28;20028;-80
2023/01/11 03:01:24;;;;;;;2.75;1.30;;;;;;;5.09;88.32;98302.84;5047575;28;20432;-80
2023/01/11 03:03:50;;;;;;;5.10;1.90;;;;;;;5.06;88.79;98303.31;5060058;28;20108;-80
2023/01/11 03:06:20;;;;;;;1.60;1.50;;;;;;;5.15;89.28;98314.38;5059897;28;20502;-80
2023/01/11 03:09:07;;;;;;;2.72;1.40;;;;;;;5.20;88.36;98319.75;5072561;28;20036;-80
2023/01/11 03:15:13;;;;;;;3.85;1.55;;;;;;;5.26;89.32;98303.00;5058644;28;20028;-80
2023/01/11 03:17:45;;;;;;;2.60;1.23;;;;;;;5.25;89.07;98311.97;5045996;28;20041;-80
2023/01/11 03:20:19;;;;;;;1.92;1.30;;;;;;;5.23;89.20;98292.88;5048945;28;20054;-80
2023/01/11 03:23:12;;;;;;;1.98;1.20;;;;;;;5.30;88.28;98290.94;5055770;28;20378;-80
2023/01/11 03:25:59;;;;;;;3.60;1.35;;;;;;;5.17;89.20;98299.06;5061275;28;20029;-79
2023/01/11 03:28:38;;;;;;;4.88;1.50;;;;;;;5.16;89.33;98294.78;5057730;28;20068;-79
2023/01/11 03:31:09;;;;;;;2.78;1.55;;;;;;;5.21;88.82;98290.44;5056948;28;20106;-80
2023/01/11 03:33:47;;;;;;;2.13;1.80;;;;;;;5.16;89.55;98300.09;5048529;28;20025;-80
2023/01/11 03:36:25;;;;;;;5.63;1.80;;;;;;;5.33;89.49;98299.19;5061827;28;20067;-80
2023/01/11 03:38:53;;;;;;;2.28;1.70;;;;;;;5.30;89.58;98288.28;5058345;28;20438;-80
2023/01/11 03:41:24;;;;;;;5.88;1.80;;;;;;;5.27;88.92;98296.66;5056205;28;20044;-80
2023/01/11 03:43:54;;;;;;;1.25;1.10;;;;;;;5.32;89.54;98281.72;5038050;28;20024;-80
2023/01/11 03:46:30;;;;;;;3.63;1.80;;;;;;;5.20;90.45;98295.94;5027091;28;20100;-80
2023/01/11 03:49:04;;;;;;;2.35;1.40;;;;;;;5.25;89.69;98286.31;5052758;28;20060;-80
2023/01/11 03:51:37;;;;;;;3.72;1.60;;;;;;;5.11;90.62;98286.75;5043660;28;20044;-80
2023/01/11 03:54:07;;;;;;;3.15;1.40;;;;;;;5.14;90.05;98278.34;5045855;28;20403;-80
2023/01/11 03:57:00;;;;;;;1.88;1.10;;;;;;;5.27;89.29;98271.00;5067160;28;20031;-80
2023/01/11 03:59:26;;;;;;;4.07;1.40;;;;;;;5.19;90.49;98262.59;5038613;28;20366;-80
2023/01/11 04:01:53;;;;;;;3.40;1.42;;;;;;;5.31;89.04;98271.34;5045018;28;20052;-80
2023/01/11 04:04:18;;;;;;;3.75;1.90;;;;;;;5.29;89.78;98262.84;5049040;28;20060;-80
2023/01/11 04:06:44;;;;;;;1.48;1.38;;;;;;;5.33;89.57;98248.94;5044771;28;20062;-80
2023/01/11 04:09:09;;;;;;;4.53;1.67;;;;;;;5.33;89.42;98250.75;5043372;28;20024;-80
2023/01/11 04:11:34;;;;;;;1.77;1.52;;;;;;;5.29;90.23;98252.25;5063984;28;20036;-80
2023/01/11 04:14:00;;;;;;;2.05;1.15;;;;;;;5.32;89.49;98246.53;5066105;28;20068;-80
2023/01/11 04:16:26;;;;;;;3.22;1.40;;;;;;;5.31;89.72;98244.91;5049135;28;20033;-80
2023/01/11 04:18:51;;;;;;;3.22;1.50;;;;;;;5.27;89.86;98243.75;5069462;28;20032;-79
2023/01/11 04:21:16;;;;;;;2.67;1.10;;;;;;;5.21;90.14;98239.38;5072432;28;20510;-80
2023/01/11 04:23:42;;;;;;;2.70;1.17;;;;;;;5.25;90.34;98230.75;5035165;28;20439;-80
2023/01/11 04:26:07;;;;;;;1.70;1.10;;;;;;;5.33;89.50;98241.00;5045194;28;20173;-80
2023/01/11 04:28:33;;;;;;;2.20;1.30;;;;;;;5.29;89.66;98223.16;5065346;28;20040;-80
2023/01/11 04:30:58;;;;;;;2.17;1.45;;;;;;;5.32;90.00;98228.81;5056247;28;20036;-79
2023/01/11 04:33:24;;;;;;;3.97;0.98;;;;;;;5.31;90.13;98236.97;5045196;28;20728;-80
2023/01/11 04:35:49;;;;;;;2.63;2.13;;;;;;;5.32;89.61;98235.94;5062680;28;20071;-81
2023/01/11 04:38:15;;;;;;;2.47;1.63;;;;;;;5.39;90.06;98249.06;5042554;28;20115;-80
2023/01/11 04:40:40;;;;;;;2.15;1.02;;;;;;;5.40;89.50;98246.16;5034007;28;20082;-80
2023/01/11 04:43:05;;;;;;;3.30;1.50;;;;;;;5.43;90.23;98234.31;5050155;28;20021;-80
2023/01/11 04:45:31;;;;;;;1.90;1.17;;;;;;;5.35;89.90;98230.19;5063640;28;20110;-80
2023/01/11 04:47:57;;;;;;;1.63;1.02;;;;;;;5.48;89.75;98232.63;5058420;28;20045;-80
2023/01/11 04:50:26;;;;;;;3.22;2.00;;;;;;;5.45;90.02;98230.41;5040039;28;20037;-79
2023/01/11 04:52:52;;;;;;;2.20;1.35;;;;;;;5.48;90.37;98227.31;5045683;28;20081;-79
2023/01/11 04:55:18;;;;;;;2.30;1.25;;;;;;;5.45;89.97;98235.72;5063987;28;20457;-80
2023/01/11 04:57:44;;;;;;;4.38;1.40;;;;;;;5.52;89.83;98223.16;5051753;28;20036;-80
2023/01/11 05:00:10;;;;;;;1.40;1.13;;;;;;;5.59;90.45;98233.63;5044069;28;20051;-80
2023/01/11 05:02:36;;;;;;;1.58;0.98;;;;;;;5.57;89.80;98222.47;5072387;28;20036;-80
2023/01/11 05:05:03;;;;;;;2.88;1.13;;;;;;;5.59;90.17;98228.34;5043842;28;20485;-80
2023/01/11 05:07:28;;;;;;;4.82;1.10;;;;;;;5.45;90.75;98217.19;5058143;28;20036;-80
2023/01/11 05:09:54;;;;;;;1.65;1.20;;;;;;;5.53;90.58;98229.25;5065127;28;20040;-80
2023/01/11 05:12:19;;;;;;;2.83;1.10;;;;;;;5.59;91.41;98223.06;5031822;28;20047;-80
2023/01/11 05:14:44;;;;;;;1.20;1.10;;;;;;;5.65;90.00;98233.53;5034694;28;20033;-80
2023/01/11 05:17:13;;;;;;;3.47;1.30;;;;;;;5.57;90.56;98220.63;5049060;28;20418;-80
2023/01/11 05:19:39;;;;;;;2.30;1.38;;;;;;;5.70;90.33;98217.72;5045008;28;20051;-80
2023/01/11 05:22:05;;;;;;;0.90;0.90;;;;;;;5.72;90.23;98210.34;5039048;28;20040;-81
2023/01/11 05:24:30;;;;;;;2.58;1.10;;;;;;;5.81;89.96;98214.25;5032363;28;20453;-80
2023/01/11 05:26:55;;;;;;;1.80;1.33;;;;;;;5.77;89.78;98207.81;5063914;28;20446;-80
2023/01/11 05:29:21;;;;;;;1.50;1.20;;;;;;;5.75;90.64;98217.03;5047822;28;20039;-80
2023/01/11 05:31:47;;;;;;;4.03;1.10;;;;;;;5.74;90.12;98207.50;5036302;28;20112;-81
2023/01/11 05:34:14;;;;;;;2.30;1.42;;;;;;;5.63;92.72;98209.13;5049508;28;20025;-80
2023/01/11 05:36:40;;;;;;;1.77;1.33;;;;;;;5.71;91.22;98214.06;5050181;28;20116;-80
2023/01/11 05:39:06;;;;;;;1.17;0.90;;;;;;;5.67;91.97;98212.91;5047687;28;20029;-80
2023/01/11 05:41:32;;;;;;;2.42;1.17;;;;;;;5.73;90.43;98204.03;5059642;28;20028;-80
2023/01/11 05:46:43;;;;;;;0.90;0.80;;;;;;;5.69;91.28;98186.19;5038189;28;20847;-80
2023/01/11 05:49:10;;;;;;;2.85;0.80;;;;;;;5.71;91.71;98206.09;5061914;28;20495;-80
2023/01/11 05:51:37;;;;;;;1.10;1.00;;;;;;;5.76;90.79;98198.28;5072999;28;20055;-80
2023/01/11 05:54:04;;;;;;;1.65;1.02;;;;;;;5.71;92.14;98210.59;5069112;28;20032;-80
2023/01/11 05:56:29;;;;;;;0.55;0.55;;;;;;;5.65;91.85;98201.75;5073670;28;20039;-80
2023/01/11 05:58:55;;;;;;;1.20;1.10;;;;;;;5.61;92.62;98207.75;5048270;28;20408;-80
2023/01/11 06:01:22;;;;;;;1.35;1.25;;;;;;;5.62;92.59;98212.78;5050445;28;20037;-79
2023/01/11 06:03:48;;;;;;;1.98;1.77;;;;;;;5.61;92.93;98200.63;5068168;28;20500;-80
2023/01/11 06:06:15;;;;;;;4.60;4.15;;;;;;;5.57;93.95;98191.50;5050735;28;20032;-80
2023/01/11 06:08:40;;;;;;;2.50;2.28;;;;;;;5.65;93.39;98185.88;5071936;28;20032;-80
2023/01/11 06:11:05;;;;;;;1.98;1.77;;;;;;;5.74;92.67;98181.00;5046542;28;20036;-81
2023/01/11 06:13:32;;;;;;;2.53;2.03;;;;;;;5.73;92.59;98190.78;5068759;28;20039;-80
2023/01/11 06:16:04;;;;;;;4.97;2.50;;;;;;;5.75;93.14;98178.13;5058704;28;20074;-80
2023/01/11 06:18:32;;;;;;;2.42;2.22;;;;;;;5.64;93.49;98167.53;5076885;28;20039;-80
2023/01/11 06:20:59;;;;;;;1.35;1.25;;;;;;;5.76;93.01;98177.09;5039934;28;20036;-79
2023/01/11 06:23:26;;;;;;;3.42;1.63;;;;;;;5.74;92.95;98171.25;5078479;28;20115;-80
2023/01/11 06:25:52;;;;;;;1.73;1.63;;;;;;;5.81;93.45;98174.53;5063248;28;20032;-80
2023/01/11 06:28:17;;;;;;;1.67;1.58;;;;;;;5.82;92.90;98172.69;5054621;28;20502;-80
2023/01/11 06:30:43;;;;;;;2.15;1.95;;;;;;;5.84;93.24;98178.59;5063652;28;20373;-80
2023/01/11 06:33:08;;;;;;;3.67;2.42;;;;;;;5.81;93.31;98171.88;5065871;28;20082;-80
2023/01/11 06:35:41;;;;;;;7.85;3.90;;;;;;;5.77;93.84;98173.41;5053749;28;20028;-80
2023/01/11 06:38:09;;;;;;;2.08;1.88;;;;;;;5.85;93.03;98178.34;5064935;28;20021;-80
2023/01/11 06:40:36;;;;;;;2.30;1.95;;;;;;;5.74;94.21;98160.66;5072770;28;20047;-80
2023/01/11 06:43:02;;;;;;;4.50;2.08;;;;;;;5.77;93.87;98173.41;5047130;28;20166;-80
2023/01/11 06:45:27;;;;;;;3.03;1.80;;;;;;;5.75;93.91;98156.13;5054372;28;20473;-80
2023/01/11 06:47:52;;;;;;;3.15;2.35;;;;;;;5.71;94.29;98157.66;5063723;28;20489;-80
2023/01/11 06:50:19;;;;;;;2.40;1.90;;;;;;;5.81;94.10;98168.47;5084067;28;20135;-80
2023/01/11 06:52:56;;;;;;;3.42;2.05;;;;;;;5.82;93.80;98167.41;5065444;28;20078;-80
2023/01/11 06:55:23;;;;;;;2.90;2.05;;;;;;;5.87;93.22;98163.06;5048193;28;20033;-80
2023/01/11 06:57:48;;;;;;;2.35;2.00;;;;;;;5.79;93.48;98173.97;5069772;28;20032;-81
2023/01/11 07:00:15;;;;;;;2.15;1.95;;;;;;;5.86;94.20;98171.22;5065267;28;20527;-81
2023/01/11 07:02:41;;;;;;;4.07;1.77;;;;;;;5.86;93.20;98161.44;5074437;28;20170;-80
2023/01/11 07:05:07;;;;;;;3.47;2.15;;;;;;;5.86;93.92;98161.44;5043454;28;20052;-80
2023/01/11 07:07:32;;;;;;;3.53;1.40;;;;;;;5.92;94.16;98157.03;5040967;28;20488;-81
2023/01/11 07:09:57;;;;;;;4.30;2.15;;;;;;;5.85;93.61;98157.16;5073279;28;20176;-81
2023/01/11 07:12:23;;;;;;;1.77;1.52;;;;;;;5.75;94.59;98156.94;5059431;28;20094;-81
2023/01/11 07:14:48;;;;;;;3.08;2.80;;;;;;;5.80;94.07;98156.25;5053075;28;20174;-81
2023/01/11 07:17:14;;;;;;;4.35;2.13;;;;;;;5.76;95.61;98142.69;5047693;28;20040;-80
2023/01/11 07:19:39;;;;;;;2.45;2.20;;;;;;;5.80;94.43;98146.47;5044307;28;20052;-80
2023/01/11 07:22:04;;;;;;;2.70;2.05;;;;;;;5.90;94.71;98161.75;5048391;28;20387;-81
2023/01/11 07:24:30;;;;;;;3.25;1.70;;;;;;;5.85;95.84;98165.09;5048581;28;20081;-81
2023/01/11 07:26:58;;;;;;;2.58;1.83;;;;;;;5.91;94.32;98158.91;5061389;28;20040;-81
2023/01/11 07:29:24;;;;;;;10.48;5.90;;;;;;;5.92;95.00;98163.13;5047890;28;20381;-81
2023/01/11 07:31:49;;;;;;;17.42;8.32;;;;;;;5.91;94.51;98166.03;5046470;28;20035;-81
2023/01/11 07:34:14;;;;;;;18.60;10.32;;;;;;;5.96;94.15;98163.50;5050781;28;20067;-81
2023/01/11 07:36:40;;;;;;;7.50;4.65;;;;;;;5.91;95.31;98156.25;5050275;28;20116;-81
2023/01/11 07:39:06;;;;;;;15.70;5.22;;;;;;;5.97;94.71;98168.53;5050256;28;20032;-81
2023/01/11 07:44:16;;;;;;;3.95;2.13;;;;;;;5.92;94.80;98168.44;5062363;28;20495;-81
2023/01/11 07:46:41;;;;;;;3.63;2.08;;;;;;;5.95;94.37;98159.22;5071561;28;20040;-81
2023/01/11 07:49:06;;;;;;;4.53;2.63;;;;;;;5.92;94.66;98149.09;5015058;28;20032;-81
2023/01/11 07:51:33;;;;;;;11.25;6.55;;;;;;;5.99;94.63;98160.34;5053750;28;20080;-81
2023/01/11 07:54:01;;;;;;;2.25;1.67;;;;;;;6.03;93.90;98172.09;5065007;28;20169;-81
2023/01/11 07:56:27;;;;;;;1.60;1.50;;;;;;;6.05;94.50;98170.00;5045811;28;20036;-81
2023/01/11 07:58:53;;;;;;;3.15;1.60;;;;;;;6.02;94.50;98160.69;5077809;28;20370;-81
2023/01/11 08:01:18;;;;;;;1.27;1.20;;;;;;;5.93;94.48;98156.00;5058181;28;20035;-81
2023/01/11 08:03:44;;;;;;;2.08;1.30;;;;;;;5.98;95.41;98158.75;5077166;28;20025;-81
2023/01/11 08:06:09;;;;;;;2.15;1.95;;;;;;;5.98;95.58;98159.53;5053399;28;20118;-81
2023/01/11 08:08:34;;;;;;;1.75;1.38;;;;;;;6.06;95.61;98155.72;5059779;28;20036;-81
2023/01/11 08:16:28;;;;;;;2.72;1.10;;;;;;;6.05;95.50;98168.16;5052272;28;20392;-81
2023/01/11 08:18:53;;;;;;;1.52;1.42;;;;;;;6.09;96.09;98160.56;5036629;28;20028;-81
2023/01/11 08:21:20;;;;;;;1.20;1.17;;;;;;;6.06;95.59;98153.06;5064723;28;20036;-81
2023/01/11 08:23:45;;;;;;;1.45;1.35;;;;;;;6.07;95.28;98168.72;5050268;28;20107;-81
2023/01/11 08:26:15;;;;;;;3.58;1.67;;;;;;;6.05;96.27;98159.41;5073442;28;20075;-81
2023/01/11 08:28:44;;;;;;;2.08;1.90;;;;;;;6.17;94.59;98172.63;5075655;28;20024;-81
2023/01/11 08:31:09;;;;;;;1.70;1.60;;;;;;;6.18;94.98;98185.63;5031027;28;20028;-81
2023/01/11 08:33:35;;;;;;;2.75;1.92;;;;;;;6.12;95.63;98173.31;5046352;28;20028;-81
2023/01/11 08:36:08;;;;;;;1.83;1.73;;;;;;;6.21;95.45;98171.09;5045764;28;20163;-81
2023/01/11 08:38:34;;;;;;;1.92;1.73;;;;;;;6.20;95.76;98175.63;5051604;28;20024;-81
2023/01/11 08:41:09;;;;;;;4.55;1.60;;;;;;;6.23;96.13;98179.59;5043991;28;20459;-81
2023/01/11 08:43:36;;;;;;;1.80;1.70;;;;;;;6.11;96.26;98170.91;5068436;28;20398;-81
2023/01/11 08:46:01;;;;;;;3.55;2.42;;;;;;;6.23;96.14;98177.78;5025438;28;20057;-81
2023/01/11 08:48:26;;;;;;;1.67;1.58;;;;;;;6.07;96.69;98166.06;5056865;28;20036;-81
2023/01/11 08:50:52;;;;;;;1.40;1.30;;;;;;;6.15;96.61;98169.41;5066044;28;20037;-81
2023/01/11 08:53:19;;;;;;;3.80;2.88;;;;;;;6.15;97.23;98172.84;5036915;28;20044;-81
2023/01/11 08:55:47;;;;;;;2.38;1.65;;;;;;;6.07;97.81;98173.25;5039893;28;20032;-81
2023/01/11 08:58:13;;;;;;;1.65;1.23;;;;;;;6.15;96.95;98170.22;5067812;28;20016;-81
2023/01/11 09:00:38;;;;;;;0.88;0.88;;;;;;;6.15;97.00;98177.34;5048876;28;20348;-81
2023/01/11 09:03:04;;;;;;;1.23;1.13;;;;;;;6.20;97.35;98172.97;5040753;28;20047;-81
2023/01/11 09:05:29;;;;;;;1.38;1.17;;;;;;;6.15;97.74;98180.81;5032576;28;20055;-81
2023/01/11 09:07:54;;;;;;;2.15;1.33;;;;;;;6.12;98.38;98175.16;5083261;28;20055;-81
2023/01/11 09:10:20;;;;;;;49.25;20.55;;;;;;;6.22;98.42;98180.66;5047011;28;20070;-81
2023/01/11 09:12:45;;;;;;;1.05;0.93;;;;;;;6.22;98.30;98196.56;5048814;28;20055;-81
2023/01/11 09:15:11;;;;;;;0.75;0.75;;;;;;;6.22;98.63;98183.31;5048551;28;20048;-81
2023/01/11 09:17:36;;;;;;;1.98;0.93;;;;;;;6.25;97.12;98172.22;5049858;28;20033;-81
2023/01/11 09:20:02;;;;;;;0.93;0.73;;;;;;;6.25;98.67;98190.78;5055468;28;20321;-81
2023/01/11 09:22:28;;;;;;;1.00;1.00;;;;;;;6.22;98.34;98186.78;5042527;28;20480;-81
2023/01/11 09:24:54;;;;;;;1.10;0.80;;;;;;;6.19;98.88;98191.72;5062616;28;20024;-80
2023/01/11 09:27:19;;;;;;;1.75;1.05;;;;;;;6.26;98.62;98201.16;5050928;28;20032;-81
2023/01/11 09:29:45;;;;;;;1.10;1.00;;;;;;;6.29;98.20;98197.22;5048125;28;20029;-81
2023/01/11 09:32:10;;;;;;;1.95;1.05;;;;;;;6.27;98.59;98181.56;5050657;28;20119;-81
2023/01/11 09:34:35;;;;;;;1.50;1.40;;;;;;;6.29;99.13;98199.88;5043176;28;20029;-81
2023/01/11 09:37:05;;;;;;;3.03;2.65;;;;;;;6.24;98.78;98191.81;5075038;28;20029;-81
2023/01/11 09:39:32;;;;;;;1.42;1.33;;;;;;;6.26;99.12;98205.66;5044822;28;20025;-81
2023/01/11 09:42:13;;;;;;;2.67;1.90;;;;;;;6.35;98.85;98196.28;5046482;28;20123;-81
2023/01/11 09:44:56;;;;;;;0.90;0.90;;;;;;;6.38;98.73;98206.38;5062325;28;20016;-81
2023/01/11 09:47:44;;;;;;;1.75;1.38;;;;;;;6.33;98.57;98198.38;5078936;28;20055;-81
2023/01/11 09:50:18;;;;;;;1.17;0.85;;;;;;;6.37;98.37;98197.66;5049192;28;20499;-81
2023/01/11 09:52:50;;;;;;;1.08;0.98;;;;;;;6.42;97.60;98199.59;5063214;28;20480;-81
2023/01/11 09:55:22;;;;;;;0.60;0.60;;;;;;;6.46;98.31;98196.25;5064024;28;20442;-81
2023/01/11 09:57:53;;;;;;;1.10;0.80;;;;;;;6.41;98.74;98196.13;5046809;28;20024;-81
2023/01/11 10:00:22;;;;;;;1.73;1.63;;;;;;;6.35;99.40;98199.75;5045834;28;20119;-81
2023/01/11 10:03:13;;;;;;;0.75;0.75;;;;;;;6.40;99.05;98191.09;5058945;28;20094;-81
2023/01/11 10:05:54;;;;;;;0.95;0.77;;;;;;;6.28;99.09;98185.81;5047277;28;20036;-80
2023/01/11 10:08:39;;;;;;;2.67;1.20;;;;;;;6.44;99.09;98197.50;5062263;28;20086;-81
2023/01/11 10:11:19;;;;;;;2.25;0.90;;;;;;;6.46;98.95;98190.13;5070414;28;20025;-81
2023/01/11 10:13:59;;;;;;;0.93;0.93;;;;;;;6.49;98.03;98198.38;5080880;28;20491;-81
2023/01/11 10:16:54;;;;;;;0.60;0.50;;;;;;;6.49;98.11;98208.19;5063789;28;20090;-81
2023/01/11 10:19:46;;;;;;;0.60;0.60;;;;;;;6.47;99.01;98203.13;5083558;28;20395;-81
2023/01/11 10:22:31;;;;;;;0.55;0.55;;;;;;;6.46;98.87;98212.13;5063386;28;20021;-81
2023/01/11 10:25:15;;;;;;;1.55;1.45;;;;;;;6.47;98.73;98215.56;5066056;28;20043;-81
2023/01/11 10:28:00;;;;;;;0.75;0.47;;;;;;;6.48;99.59;98207.41;5052349;28;20020;-81
2023/01/11 10:38:48;;;;;;;1.23;1.20;;;;;;;6.46;98.68;98214.78;5061350;28;20067;-81
2023/01/11 10:41:28;;;;;;;1.17;1.08;;;;;;;6.53;98.65;98204.03;5044501;28;20040;-81
2023/01/11 10:44:29;;;;;;;1.52;1.30;;;;;;;6.63;98.45;98209.50;5061601;28;20178;-80
2023/01/11 10:46:58;;;;;;;1.30;1.20;;;;;;;6.56;98.71;98199.06;5078155;28;20032;-81
2023/01/11 10:49:24;;;;;;;1.00;1.00;;;;;;;6.63;99.05;98206.84;5063291;28;20499;-81
2023/01/11 10:51:54;;;;;;;1.08;1.00;;;;;;;6.65;98.36;98194.97;5077406;28;20025;-81
2023/01/11 10:54:26;;;;;;;0.90;0.88;;;;;;;6.65;98.57;98204.78;5059605;28;20060;-81
2023/01/11 10:57:12;;;;;;;2.90;1.10;;;;;;;6.66;98.63;98198.44;5059271;28;20032;-81
2023/01/11 10:59:56;;;;;;;2.15;1.48;;;;;;;6.69;99.34;98200.59;5055586;28;20163;-81
2023/01/11 11:02:54;;;;;;;2.20;0.80;;;;;;;6.69;98.64;98188.16;5056133;28;20028;-81
2023/01/11 11:05:43;;;;;;;0.70;0.70;;;;;;;6.75;98.53;98189.84;5056521;28;20107;-81
2023/01/11 11:08:15;;;;;;;0.57;0.55;;;;;;;6.67;98.57;98178.81;5061030;28;20024;-81
2023/01/11 11:10:51;;;;;;;1.10;1.00;;;;;;;6.72;98.54;98176.25;5058953;28;20032;-81
2023/01/11 11:13:21;;;;;;;0.80;0.80;;;;;;;6.64;98.49;98171.38;5052916;28;20029;-81
2023/01/11 11:15:52;;;;;;;1.05;1.02;;;;;;;6.70;97.32;98178.34;5057398;28;20048;-81
2023/01/11 11:18:17;;;;;;;1.00;1.00;;;;;;;6.72;99.35;98181.56;5048107;28;20079;-81
2023/01/11 11:20:45;;;;;;;0.98;0.90;;;;;;;6.73;98.65;98191.91;5049414;28;20048;-81
2023/01/11 11:23:17;;;;;;;1.17;1.00;;;;;;;6.73;98.02;98177.84;5034481;28;20120;-81
2023/01/11 11:25:50;;;;;;;0.73;0.73;;;;;;;6.80;98.65;98189.94;5038805;28;20029;-81
2023/01/11 11:28:21;;;;;;;0.80;0.80;;;;;;;6.72;98.39;98186.88;5054752;28;20502;-81
2023/01/11 11:30:50;;;;;;;1.75;1.00;;;;;;;6.77;98.35;98179.00;5060121;28;20697;-81
2023/01/11 11:33:19;;;;;;;0.70;0.70;;;;;;;6.85;98.47;98181.25;5048642;28;20028;-81
2023/01/11 11:35:58;;;;;;;1.60;1.08;;;;;;;6.83;97.82;98183.34;5044572;28;20488;-81
2023/01/11 11:38:28;;;;;;;0.95;0.95;;;;;;;6.89;98.46;98182.38;5065127;28;20029;-81
2023/01/11 11:41:02;;;;;;;0.70;0.70;;;;;;;6.89;98.88;98189.53;5052833;28;20035;-81
2023/01/11 11:43:29;;;;;;;1.13;0.88;;;;;;;6.90;97.54;98189.31;5063130;28;20099;-81
2023/01/11 11:46:00;;;;;;;1.95;1.02;;;;;;;6.82;98.04;98194.97;5068769;28;20033;-81
2023/01/11 11:48:28;;;;;;;0.93;0.93;;;;;;;6.93;97.78;98190.63;5074035;28;20036;-81
2023/01/11 11:50:58;;;;;;;1.25;1.15;;;;;;;6.83;97.86;98193.94;5050233;28;20763;-81
2023/01/11 11:53:31;;;;;;;1.00;1.00;;;;;;;6.93;97.60;98194.09;5045988;28;20035;-82
2023/01/11 11:55:57;;;;;;;1.10;1.00;;;;;;;6.79;98.37;98185.66;5054143;28;20023;-81
2023/01/11 11:58:25;;;;;;;1.50;1.25;;;;;;;6.92;97.19;98192.50;5071517;28;20460;-82
2023/01/11 12:00:51;;;;;;;1.00;1.00;;;;;;;6.85;98.92;98189.22;5052813;28;20480;-81
2023/01/11 12:03:30;;;;;;;1.60;0.98;;;;;;;6.77;98.99;98189.63;5053286;28;20075;-82
2023/01/11 12:06:02;;;;;;;1.98;0.90;;;;;;;6.77;98.66;98182.44;5045195;28;20032;-81
2023/01/11 12:08:31;;;;;;;0.93;0.70;;;;;;;6.85;98.11;98170.66;5064057;28;20040;-81
2023/01/11 12:11:00;;;;;;;0.90;0.90;;;;;;;6.95;97.82;98159.38;5061833;28;20032;-81
2023/01/11 12:13:36;;;;;;;1.08;0.95;;;;;;;6.85;98.32;98164.53;5067594;28;21032;-81
2023/01/11 12:16:21;;;;;;;0.77;0.77;;;;;;;7.03;97.66;98183.69;5059243;28;20028;-80
2023/01/11 12:18:47;;;;;;;2.42;0.90;;;;;;;6.95;97.83;98175.28;5065830;28;20530;-81
2023/01/11 12:21:20;;;;;;;0.80;0.80;;;;;;;6.96;98.23;98172.41;5033916;28;20040;-81
2023/01/11 12:23:47;;;;;;;12.38;7.20;;;;;;;6.89;99.53;98173.59;5058633;28;20108;-81
2023/01/11 12:26:18;;;;;;;3.10;1.85;;;;;;;6.95;99.50;98165.50;5059765;28;20546;-81
2023/01/11 12:29:12;;;;;;;2.33;1.20;;;;;;;6.99;98.51;98171.13;5053682;28;20404;-81